sensor_id;sensor_type;location;lat;lon;timestamp;P1;durP1;ratioP1;P2;durP2;ratioP2
1591;SDS011;789;51.612;7.510;2022-10-13T00:01:08;16.37;;;14.20;;
1591;SDS011;789;51.612;7.510;2022-10-13T00:03:36;20.10;;;14.50;;
1591;SDS011;789;51.612;7.510;2022-10-13T00:06:04;15.80;;;13.63;;
1591;SDS011;789;51.612;7.510;2022-10-13T00:08:32;20.13;;;13.80;;
1591;SDS011;789;51.612;7.510;2022-10-13T00:10:59;17.20;;;14.70;;
1591;SDS011;789;51.612;7.510;2022-10-13T00:13:26;17.03;;;14.67;;
1591;SDS011;789;51.612;7.510;2022-10-13T00:15:53;19.10;;;14.67;;
1591;SDS011;789;51.612;7.510;2022-10-13T00:18:21;21.43;;;13.70;;
1591;SDS011;789;51.612;7.510;2022-10-13T00:20:48;16.00;;;13.13;;
1591;SDS011;789;51.612;7.510;2022-10-13T00:23:15;18.70;;;14.27;;
1591;SDS011;789;51.612;7.510;2022-10-13T00:25:42;15.50;;;13.73;;
1591;SDS011;789;51.612;7.510;2022-10-13T00:28:11;17.30;;;13.73;;
1591;SDS011;789;51.612;7.510;2022-10-13T00:30:38;21.27;;;14.37;;
1591;SDS011;789;51.612;7.510;2022-10-13T00:33:05;19.00;;;14.30;;
1591;SDS011;789;51.612;7.510;2022-10-13T00:35:36;20.87;;;14.90;;
1591;SDS011;789;51.612;7.510;2022-10-13T00:38:05;18.90;;;13.03;;
1591;SDS011;789;51.612;7.510;2022-10-13T00:40:32;16.33;;;14.20;;
1591;SDS011;789;51.612;7.510;2022-10-13T00:42:59;19.30;;;14.00;;
1591;SDS011;789;51.612;7.510;2022-10-13T00:45:26;17.97;;;14.77;;
1591;SDS011;789;51.612;7.510;2022-10-13T00:47:54;23.30;;;15.07;;
1591;SDS011;789;51.612;7.510;2022-10-13T00:50:24;18.27;;;14.27;;
1591;SDS011;789;51.612;7.510;2022-10-13T00:52:58;17.63;;;14.00;;
1591;SDS011;789;51.612;7.510;2022-10-13T00:55:26;18.43;;;13.07;;
1591;SDS011;789;51.612;7.510;2022-10-13T00:57:56;18.33;;;13.40;;
1591;SDS011;789;51.612;7.510;2022-10-13T01:00:26;17.50;;;14.77;;
1591;SDS011;789;51.612;7.510;2022-10-13T01:02:53;22.00;;;14.07;;
1591;SDS011;789;51.612;7.510;2022-10-13T01:05:20;19.50;;;14.07;;
1591;SDS011;789;51.612;7.510;2022-10-13T01:07:49;18.30;;;14.63;;
1591;SDS011;789;51.612;7.510;2022-10-13T01:10:20;19.30;;;14.40;;
1591;SDS011;789;51.612;7.510;2022-10-13T01:12:57;18.00;;;14.20;;
1591;SDS011;789;51.612;7.510;2022-10-13T01:15:29;17.07;;;14.60;;
1591;SDS011;789;51.612;7.510;2022-10-13T01:18:02;20.73;;;14.20;;
1591;SDS011;789;51.612;7.510;2022-10-13T01:20:48;17.93;;;13.63;;
1591;SDS011;789;51.612;7.510;2022-10-13T01:26:38;17.50;;;14.30;;
1591;SDS011;789;51.612;7.510;2022-10-13T01:32:17;25.30;;;14.40;;
1591;SDS011;789;51.612;7.510;2022-10-13T01:34:55;19.40;;;14.83;;
1591;SDS011;789;51.612;7.510;2022-10-13T01:37:31;18.53;;;13.90;;
1591;SDS011;789;51.612;7.510;2022-10-13T01:40:07;19.90;;;14.30;;
1591;SDS011;789;51.612;7.510;2022-10-13T01:42:42;18.00;;;14.20;;
1591;SDS011;789;51.612;7.510;2022-10-13T01:45:17;17.47;;;14.00;;
1591;SDS011;789;51.612;7.510;2022-10-13T01:47:47;21.70;;;14.73;;
1591;SDS011;789;51.612;7.510;2022-10-13T01:50:15;16.70;;;13.13;;
1591;SDS011;789;51.612;7.510;2022-10-13T01:52:43;21.93;;;15.90;;
1591;SDS011;789;51.612;7.510;2022-10-13T01:55:12;17.07;;;14.20;;
1591;SDS011;789;51.612;7.510;2022-10-13T01:57:39;16.90;;;14.17;;
1591;SDS011;789;51.612;7.510;2022-10-13T02:00:08;16.00;;;14.20;;
1591;SDS011;789;51.612;7.510;2022-10-13T02:02:40;15.77;;;13.40;;
1591;SDS011;789;51.612;7.510;2022-10-13T02:05:13;18.40;;;13.93;;
1591;SDS011;789;51.612;7.510;2022-10-13T02:07:48;17.53;;;13.20;;
1591;SDS011;789;51.612;7.510;2022-10-13T02:10:21;17.57;;;13.93;;
1591;SDS011;789;51.612;7.510;2022-10-13T02:12:53;20.57;;;14.03;;
1591;SDS011;789;51.612;7.510;2022-10-13T02:15:24;18.40;;;14.40;;
1591;SDS011;789;51.612;7.510;2022-10-13T02:17:57;21.43;;;14.00;;
1591;SDS011;789;51.612;7.510;2022-10-13T02:20:27;18.40;;;14.73;;
1591;SDS011;789;51.612;7.510;2022-10-13T02:22:54;24.97;;;15.20;;
1591;SDS011;789;51.612;7.510;2022-10-13T02:25:25;20.93;;;15.73;;
1591;SDS011;789;51.612;7.510;2022-10-13T02:27:53;19.20;;;15.40;;
1591;SDS011;789;51.612;7.510;2022-10-13T02:30:23;20.80;;;14.30;;
1591;SDS011;789;51.612;7.510;2022-10-13T02:32:52;17.10;;;13.83;;
1591;SDS011;789;51.612;7.510;2022-10-13T02:35:20;20.00;;;14.40;;
1591;SDS011;789;51.612;7.510;2022-10-13T02:37:46;21.70;;;14.77;;
1591;SDS011;789;51.612;7.510;2022-10-13T02:40:13;19.63;;;14.53;;
1591;SDS011;789;51.612;7.510;2022-10-13T02:42:40;21.30;;;14.70;;
1591;SDS011;789;51.612;7.510;2022-10-13T02:45:07;17.73;;;14.53;;
1591;SDS011;789;51.612;7.510;2022-10-13T02:47:35;17.30;;;14.87;;
1591;SDS011;789;51.612;7.510;2022-10-13T02:50:02;16.13;;;14.37;;
1591;SDS011;789;51.612;7.510;2022-10-13T02:52:31;20.03;;;13.27;;
1591;SDS011;789;51.612;7.510;2022-10-13T02:54:58;16.50;;;13.43;;
1591;SDS011;789;51.612;7.510;2022-10-13T02:57:24;23.80;;;14.50;;
1591;SDS011;789;51.612;7.510;2022-10-13T02:59:51;24.63;;;15.50;;
1591;SDS011;789;51.612;7.510;2022-10-13T03:02:18;19.20;;;15.23;;
1591;SDS011;789;51.612;7.510;2022-10-13T03:04:45;16.50;;;14.03;;
1591;SDS011;789;51.612;7.510;2022-10-13T03:07:13;18.97;;;14.00;;
1591;SDS011;789;51.612;7.510;2022-10-13T03:09:41;19.13;;;15.30;;
1591;SDS011;789;51.612;7.510;2022-10-13T03:12:08;22.27;;;16.00;;
1591;SDS011;789;51.612;7.510;2022-10-13T03:14:35;21.43;;;16.83;;
1591;SDS011;789;51.612;7.510;2022-10-13T03:17:02;18.70;;;15.03;;
1591;SDS011;789;51.612;7.510;2022-10-13T03:19:29;17.13;;;15.33;;
1591;SDS011;789;51.612;7.510;2022-10-13T03:21:55;22.80;;;17.10;;
1591;SDS011;789;51.612;7.510;2022-10-13T03:24:22;21.77;;;15.33;;
1591;SDS011;789;51.612;7.510;2022-10-13T03:26:50;19.77;;;15.90;;
1591;SDS011;789;51.612;7.510;2022-10-13T03:29:17;23.30;;;16.63;;
1591;SDS011;789;51.612;7.510;2022-10-13T03:31:47;20.80;;;15.37;;
1591;SDS011;789;51.612;7.510;2022-10-13T03:34:14;22.27;;;16.67;;
1591;SDS011;789;51.612;7.510;2022-10-13T03:36:43;19.37;;;15.90;;
1591;SDS011;789;51.612;7.510;2022-10-13T03:39:09;22.17;;;15.90;;
1591;SDS011;789;51.612;7.510;2022-10-13T03:41:37;24.13;;;16.00;;
1591;SDS011;789;51.612;7.510;2022-10-13T03:44:05;21.00;;;14.40;;
1591;SDS011;789;51.612;7.510;2022-10-13T03:46:32;20.30;;;15.00;;
1591;SDS011;789;51.612;7.510;2022-10-13T03:48:59;22.67;;;15.20;;
1591;SDS011;789;51.612;7.510;2022-10-13T03:51:26;20.20;;;14.77;;
1591;SDS011;789;51.612;7.510;2022-10-13T03:53:52;21.97;;;16.10;;
1591;SDS011;789;51.612;7.510;2022-10-13T03:56:20;21.50;;;15.50;;
1591;SDS011;789;51.612;7.510;2022-10-13T03:58:49;20.70;;;14.80;;
1591;SDS011;789;51.612;7.510;2022-10-13T04:01:19;19.53;;;14.50;;
1591;SDS011;789;51.612;7.510;2022-10-13T04:03:47;24.47;;;17.50;;
1591;SDS011;789;51.612;7.510;2022-10-13T04:06:14;18.87;;;15.17;;
1591;SDS011;789;51.612;7.510;2022-10-13T04:08:41;21.17;;;15.40;;
1591;SDS011;789;51.612;7.510;2022-10-13T04:11:09;23.80;;;16.00;;
1591;SDS011;789;51.612;7.510;2022-10-13T04:13:37;21.23;;;16.47;;
1591;SDS011;789;51.612;7.510;2022-10-13T04:16:05;19.23;;;14.70;;
1591;SDS011;789;51.612;7.510;2022-10-13T04:18:35;19.20;;;15.80;;
1591;SDS011;789;51.612;7.510;2022-10-13T04:21:05;23.17;;;15.33;;
1591;SDS011;789;51.612;7.510;2022-10-13T04:23:34;24.17;;;14.97;;
1591;SDS011;789;51.612;7.510;2022-10-13T04:26:00;23.20;;;16.47;;
1591;SDS011;789;51.612;7.510;2022-10-13T04:28:27;20.03;;;14.63;;
1591;SDS011;789;51.612;7.510;2022-10-13T04:30:54;20.80;;;15.97;;
1591;SDS011;789;51.612;7.510;2022-10-13T04:33:23;21.67;;;15.70;;
1591;SDS011;789;51.612;7.510;2022-10-13T04:35:51;19.77;;;16.00;;
1591;SDS011;789;51.612;7.510;2022-10-13T04:38:18;24.50;;;15.57;;
1591;SDS011;789;51.612;7.510;2022-10-13T04:40:45;22.60;;;16.30;;
1591;SDS011;789;51.612;7.510;2022-10-13T04:43:11;20.60;;;15.43;;
1591;SDS011;789;51.612;7.510;2022-10-13T04:45:39;19.90;;;15.97;;
1591;SDS011;789;51.612;7.510;2022-10-13T04:48:06;19.77;;;15.60;;
1591;SDS011;789;51.612;7.510;2022-10-13T04:50:33;23.03;;;15.83;;
1591;SDS011;789;51.612;7.510;2022-10-13T04:53:01;24.03;;;15.93;;
1591;SDS011;789;51.612;7.510;2022-10-13T04:55:28;23.23;;;15.80;;
1591;SDS011;789;51.612;7.510;2022-10-13T04:57:54;20.00;;;16.07;;
1591;SDS011;789;51.612;7.510;2022-10-13T05:00:21;34.80;;;17.33;;
1591;SDS011;789;51.612;7.510;2022-10-13T05:02:48;22.47;;;16.00;;
1591;SDS011;789;51.612;7.510;2022-10-13T05:05:15;19.80;;;16.27;;
1591;SDS011;789;51.612;7.510;2022-10-13T05:07:42;22.87;;;16.83;;
1591;SDS011;789;51.612;7.510;2022-10-13T05:10:10;24.80;;;17.27;;
1591;SDS011;789;51.612;7.510;2022-10-13T05:12:36;26.77;;;17.50;;
1591;SDS011;789;51.612;7.510;2022-10-13T05:15:03;24.50;;;16.97;;
1591;SDS011;789;51.612;7.510;2022-10-13T05:17:31;25.13;;;17.63;;
1591;SDS011;789;51.612;7.510;2022-10-13T05:19:58;26.87;;;17.30;;
1591;SDS011;789;51.612;7.510;2022-10-13T05:22:25;20.70;;;16.90;;
1591;SDS011;789;51.612;7.510;2022-10-13T05:24:53;28.90;;;16.70;;
1591;SDS011;789;51.612;7.510;2022-10-13T05:27:21;21.70;;;17.27;;
1591;SDS011;789;51.612;7.510;2022-10-13T05:29:48;31.60;;;18.20;;
1591;SDS011;789;51.612;7.510;2022-10-13T05:32:15;31.07;;;18.80;;
1591;SDS011;789;51.612;7.510;2022-10-13T05:34:41;25.60;;;17.13;;
1591;SDS011;789;51.612;7.510;2022-10-13T05:37:08;22.20;;;16.90;;
1591;SDS011;789;51.612;7.510;2022-10-13T05:39:35;28.07;;;17.60;;
1591;SDS011;789;51.612;7.510;2022-10-13T05:42:02;35.13;;;18.37;;
1591;SDS011;789;51.612;7.510;2022-10-13T05:44:30;26.87;;;17.73;;
1591;SDS011;789;51.612;7.510;2022-10-13T05:46:56;26.87;;;17.77;;
1591;SDS011;789;51.612;7.510;2022-10-13T05:49:23;28.13;;;16.83;;
1591;SDS011;789;51.612;7.510;2022-10-13T05:51:51;23.93;;;17.57;;
1591;SDS011;789;51.612;7.510;2022-10-13T05:54:21;23.23;;;16.90;;
1591;SDS011;789;51.612;7.510;2022-10-13T05:56:54;26.07;;;17.40;;
1591;SDS011;789;51.612;7.510;2022-10-13T05:59:24;24.83;;;16.37;;
1591;SDS011;789;51.612;7.510;2022-10-13T06:01:56;28.50;;;18.17;;
1591;SDS011;789;51.612;7.510;2022-10-13T06:04:23;23.17;;;17.00;;
1591;SDS011;789;51.612;7.510;2022-10-13T06:06:55;24.90;;;17.90;;
1591;SDS011;789;51.612;7.510;2022-10-13T06:09:22;27.03;;;17.10;;
1591;SDS011;789;51.612;7.510;2022-10-13T06:11:48;39.43;;;17.40;;
1591;SDS011;789;51.612;7.510;2022-10-13T06:14:15;28.33;;;18.50;;
1591;SDS011;789;51.612;7.510;2022-10-13T06:16:42;28.63;;;18.40;;
1591;SDS011;789;51.612;7.510;2022-10-13T06:19:10;30.40;;;17.67;;
1591;SDS011;789;51.612;7.510;2022-10-13T06:21:36;24.67;;;16.87;;
1591;SDS011;789;51.612;7.510;2022-10-13T06:24:03;25.77;;;15.70;;
1591;SDS011;789;51.612;7.510;2022-10-13T06:26:30;30.90;;;17.00;;
1591;SDS011;789;51.612;7.510;2022-10-13T06:28:57;25.37;;;16.77;;
1591;SDS011;789;51.612;7.510;2022-10-13T06:31:24;35.97;;;19.60;;
1591;SDS011;789;51.612;7.510;2022-10-13T06:33:51;31.50;;;17.20;;
1591;SDS011;789;51.612;7.510;2022-10-13T06:36:19;26.13;;;15.77;;
1591;SDS011;789;51.612;7.510;2022-10-13T06:38:45;31.67;;;17.30;;
1591;SDS011;789;51.612;7.510;2022-10-13T06:41:12;30.97;;;17.37;;
1591;SDS011;789;51.612;7.510;2022-10-13T06:43:39;27.70;;;17.30;;
1591;SDS011;789;51.612;7.510;2022-10-13T06:46:06;25.63;;;16.23;;
1591;SDS011;789;51.612;7.510;2022-10-13T06:48:33;24.57;;;15.67;;
1591;SDS011;789;51.612;7.510;2022-10-13T06:51:00;24.63;;;15.87;;
1591;SDS011;789;51.612;7.510;2022-10-13T06:53:28;24.47;;;16.33;;
1591;SDS011;789;51.612;7.510;2022-10-13T06:55:55;22.63;;;14.87;;
1591;SDS011;789;51.612;7.510;2022-10-13T06:58:23;26.80;;;15.80;;
1591;SDS011;789;51.612;7.510;2022-10-13T07:00:49;28.47;;;16.07;;
1591;SDS011;789;51.612;7.510;2022-10-13T07:03:16;23.47;;;15.20;;
1591;SDS011;789;51.612;7.510;2022-10-13T07:05:43;22.20;;;14.57;;
1591;SDS011;789;51.612;7.510;2022-10-13T07:08:10;19.13;;;14.07;;
1591;SDS011;789;51.612;7.510;2022-10-13T07:10:38;30.23;;;18.57;;
1591;SDS011;789;51.612;7.510;2022-10-13T07:13:05;16.30;;;12.83;;
1591;SDS011;789;51.612;7.510;2022-10-13T07:15:32;25.20;;;13.53;;
1591;SDS011;789;51.612;7.510;2022-10-13T07:18:01;21.73;;;13.53;;
1591;SDS011;789;51.612;7.510;2022-10-13T07:20:28;26.07;;;13.63;;
1591;SDS011;789;51.612;7.510;2022-10-13T07:22:55;22.77;;;14.40;;
1591;SDS011;789;51.612;7.510;2022-10-13T07:25:22;21.50;;;13.53;;
1591;SDS011;789;51.612;7.510;2022-10-13T07:27:50;22.00;;;14.07;;
1591;SDS011;789;51.612;7.510;2022-10-13T07:30:16;25.53;;;12.67;;
1591;SDS011;789;51.612;7.510;2022-10-13T07:32:43;18.63;;;13.23;;
1591;SDS011;789;51.612;7.510;2022-10-13T07:35:10;13.93;;;12.33;;
1591;SDS011;789;51.612;7.510;2022-10-13T07:37:37;21.07;;;12.13;;
1591;SDS011;789;51.612;7.510;2022-10-13T07:40:05;14.60;;;11.40;;
1591;SDS011;789;51.612;7.510;2022-10-13T07:42:32;16.03;;;11.87;;
1591;SDS011;789;51.612;7.510;2022-10-13T07:45:01;17.20;;;11.67;;
1591;SDS011;789;51.612;7.510;2022-10-13T07:47:28;14.77;;;11.60;;
1591;SDS011;789;51.612;7.510;2022-10-13T07:49:55;16.57;;;11.40;;
1591;SDS011;789;51.612;7.510;2022-10-13T07:52:21;14.00;;;11.30;;
1591;SDS011;789;51.612;7.510;2022-10-13T07:54:48;17.07;;;10.10;;
1591;SDS011;789;51.612;7.510;2022-10-13T07:57:15;25.93;;;16.10;;
1591;SDS011;789;51.612;7.510;2022-10-13T07:59:42;15.60;;;11.10;;
1591;SDS011;789;51.612;7.510;2022-10-13T08:02:10;25.87;;;11.87;;
1591;SDS011;789;51.612;7.510;2022-10-13T08:04:36;14.73;;;10.80;;
1591;SDS011;789;51.612;7.510;2022-10-13T08:07:04;15.77;;;10.20;;
1591;SDS011;789;51.612;7.510;2022-10-13T08:09:31;22.40;;;11.50;;
1591;SDS011;789;51.612;7.510;2022-10-13T08:11:58;12.80;;;9.77;;
1591;SDS011;789;51.612;7.510;2022-10-13T08:14:25;21.33;;;12.93;;
1591;SDS011;789;51.612;7.510;2022-10-13T08:16:51;18.10;;;11.57;;
1591;SDS011;789;51.612;7.510;2022-10-13T08:19:20;18.17;;;10.50;;
1591;SDS011;789;51.612;7.510;2022-10-13T08:21:46;20.20;;;13.30;;
1591;SDS011;789;51.612;7.510;2022-10-13T08:24:14;12.27;;;10.80;;
1591;SDS011;789;51.612;7.510;2022-10-13T08:26:42;15.90;;;12.20;;
1591;SDS011;789;51.612;7.510;2022-10-13T08:29:10;18.43;;;12.53;;
1591;SDS011;789;51.612;7.510;2022-10-13T08:31:37;16.27;;;11.70;;
1591;SDS011;789;51.612;7.510;2022-10-13T08:34:04;29.07;;;12.70;;
1591;SDS011;789;51.612;7.510;2022-10-13T08:36:32;17.67;;;11.60;;
1591;SDS011;789;51.612;7.510;2022-10-13T08:38:59;17.00;;;10.93;;
1591;SDS011;789;51.612;7.510;2022-10-13T08:41:27;16.63;;;10.40;;
1591;SDS011;789;51.612;7.510;2022-10-13T08:44:03;17.27;;;11.50;;
1591;SDS011;789;51.612;7.510;2022-10-13T08:46:32;16.20;;;11.30;;
1591;SDS011;789;51.612;7.510;2022-10-13T08:49:07;15.80;;;11.57;;
1591;SDS011;789;51.612;7.510;2022-10-13T08:51:35;18.07;;;12.10;;
1591;SDS011;789;51.612;7.510;2022-10-13T08:54:02;16.23;;;12.70;;
1591;SDS011;789;51.612;7.510;2022-10-13T08:56:31;22.50;;;12.90;;
1591;SDS011;789;51.612;7.510;2022-10-13T08:59:00;22.50;;;14.47;;
1591;SDS011;789;51.612;7.510;2022-10-13T09:01:29;23.70;;;14.30;;
1591;SDS011;789;51.612;7.510;2022-10-13T09:04:00;19.93;;;12.70;;
1591;SDS011;789;51.612;7.510;2022-10-13T09:06:38;20.93;;;12.33;;
1591;SDS011;789;51.612;7.510;2022-10-13T09:09:11;19.33;;;12.70;;
1591;SDS011;789;51.612;7.510;2022-10-13T09:11:40;18.17;;;11.30;;
1591;SDS011;789;51.612;7.510;2022-10-13T09:14:09;17.90;;;11.10;;
1591;SDS011;789;51.612;7.510;2022-10-13T09:16:37;20.80;;;14.03;;
1591;SDS011;789;51.612;7.510;2022-10-13T09:19:13;20.70;;;13.10;;
1591;SDS011;789;51.612;7.510;2022-10-13T09:21:47;22.53;;;13.50;;
1591;SDS011;789;51.612;7.510;2022-10-13T09:24:16;18.60;;;11.83;;
1591;SDS011;789;51.612;7.510;2022-10-13T09:26:44;18.40;;;12.10;;
1591;SDS011;789;51.612;7.510;2022-10-13T09:29:15;19.00;;;13.20;;
1591;SDS011;789;51.612;7.510;2022-10-13T09:31:43;20.57;;;13.20;;
1591;SDS011;789;51.612;7.510;2022-10-13T09:34:15;15.97;;;11.43;;
1591;SDS011;789;51.612;7.510;2022-10-13T09:36:57;22.93;;;13.00;;
1591;SDS011;789;51.612;7.510;2022-10-13T09:39:25;38.53;;;14.83;;
1591;SDS011;789;51.612;7.510;2022-10-13T09:41:52;20.93;;;12.43;;
1591;SDS011;789;51.612;7.510;2022-10-13T09:44:43;17.77;;;11.23;;
1591;SDS011;789;51.612;7.510;2022-10-13T09:47:15;26.40;;;13.60;;
1591;SDS011;789;51.612;7.510;2022-10-13T09:49:44;16.83;;;10.87;;
1591;SDS011;789;51.612;7.510;2022-10-13T09:52:15;17.40;;;11.13;;
1591;SDS011;789;51.612;7.510;2022-10-13T09:54:46;14.80;;;12.30;;
1591;SDS011;789;51.612;7.510;2022-10-13T09:57:16;19.40;;;11.20;;
1591;SDS011;789;51.612;7.510;2022-10-13T09:59:50;29.40;;;11.27;;
1591;SDS011;789;51.612;7.510;2022-10-13T10:02:23;18.10;;;10.90;;
1591;SDS011;789;51.612;7.510;2022-10-13T10:04:55;11.83;;;10.40;;
1591;SDS011;789;51.612;7.510;2022-10-13T10:07:28;14.60;;;10.50;;
1591;SDS011;789;51.612;7.510;2022-10-13T10:09:58;20.03;;;10.73;;
1591;SDS011;789;51.612;7.510;2022-10-13T10:12:30;11.93;;;10.47;;
1591;SDS011;789;51.612;7.510;2022-10-13T10:15:01;15.43;;;10.33;;
1591;SDS011;789;51.612;7.510;2022-10-13T10:17:32;17.03;;;10.50;;
1591;SDS011;789;51.612;7.510;2022-10-13T10:20:11;16.23;;;10.13;;
1591;SDS011;789;51.612;7.510;2022-10-13T10:22:51;14.17;;;9.60;;
1591;SDS011;789;51.612;7.510;2022-10-13T10:25:25;16.83;;;8.80;;
1591;SDS011;789;51.612;7.510;2022-10-13T10:28:09;12.60;;;8.40;;
1591;SDS011;789;51.612;7.510;2022-10-13T10:30:48;11.03;;;9.23;;
1591;SDS011;789;51.612;7.510;2022-10-13T10:33:19;11.47;;;8.53;;
1591;SDS011;789;51.612;7.510;2022-10-13T10:35:51;13.87;;;9.23;;
1591;SDS011;789;51.612;7.510;2022-10-13T10:38:27;10.67;;;8.80;;
1591;SDS011;789;51.612;7.510;2022-10-13T10:41:02;12.23;;;7.00;;
1591;SDS011;789;51.612;7.510;2022-10-13T10:43:40;13.20;;;7.83;;
1591;SDS011;789;51.612;7.510;2022-10-13T10:46:12;9.23;;;7.53;;
1591;SDS011;789;51.612;7.510;2022-10-13T10:48:42;15.23;;;8.50;;
1591;SDS011;789;51.612;7.510;2022-10-13T10:51:11;11.30;;;7.30;;
1591;SDS011;789;51.612;7.510;2022-10-13T10:53:43;10.60;;;7.23;;
1591;SDS011;789;51.612;7.510;2022-10-13T10:56:18;11.10;;;7.63;;
1591;SDS011;789;51.612;7.510;2022-10-13T10:58:58;11.87;;;8.53;;
1591;SDS011;789;51.612;7.510;2022-10-13T11:01:32;12.70;;;7.13;;
1591;SDS011;789;51.612;7.510;2022-10-13T11:04:15;9.03;;;7.40;;
1591;SDS011;789;51.612;7.510;2022-10-13T11:07:00;10.50;;;6.83;;
1591;SDS011;789;51.612;7.510;2022-10-13T11:12:45;9.97;;;7.70;;
1591;SDS011;789;51.612;7.510;2022-10-13T11:15:39;16.07;;;6.97;;
1591;SDS011;789;51.612;7.510;2022-10-13T11:21:22;8.60;;;7.40;;
1591;SDS011;789;51.612;7.510;2022-10-13T11:23:49;13.20;;;8.10;;
1591;SDS011;789;51.612;7.510;2022-10-13T11:26:27;9.07;;;6.43;;
1591;SDS011;789;51.612;7.510;2022-10-13T11:29:15;10.80;;;6.80;;
1591;SDS011;789;51.612;7.510;2022-10-13T11:31:47;10.00;;;7.33;;
1591;SDS011;789;51.612;7.510;2022-10-13T11:34:26;9.07;;;6.70;;
1591;SDS011;789;51.612;7.510;2022-10-13T11:36:55;7.53;;;6.20;;
1591;SDS011;789;51.612;7.510;2022-10-13T11:39:35;12.17;;;5.80;;
1591;SDS011;789;51.612;7.510;2022-10-13T11:42:27;9.03;;;6.00;;
1591;SDS011;789;51.612;7.510;2022-10-13T11:45:20;12.33;;;6.60;;
1591;SDS011;789;51.612;7.510;2022-10-13T11:48:00;12.67;;;6.23;;
1591;SDS011;789;51.612;7.510;2022-10-13T11:50:46;12.80;;;6.50;;
1591;SDS011;789;51.612;7.510;2022-10-13T11:53:27;13.00;;;6.77;;
1591;SDS011;789;51.612;7.510;2022-10-13T11:55:58;9.93;;;6.70;;
1591;SDS011;789;51.612;7.510;2022-10-13T11:58:27;11.17;;;6.80;;
1591;SDS011;789;51.612;7.510;2022-10-13T12:00:56;13.33;;;5.80;;
1591;SDS011;789;51.612;7.510;2022-10-13T12:03:25;9.57;;;6.33;;
1591;SDS011;789;51.612;7.510;2022-10-13T12:05:54;8.70;;;6.10;;
1591;SDS011;789;51.612;7.510;2022-10-13T12:08:25;16.73;;;6.80;;
1591;SDS011;789;51.612;7.510;2022-10-13T12:10:54;11.10;;;6.17;;
1591;SDS011;789;51.612;7.510;2022-10-13T12:13:25;10.20;;;6.33;;
1591;SDS011;789;51.612;7.510;2022-10-13T12:15:58;9.40;;;6.37;;
1591;SDS011;789;51.612;7.510;2022-10-13T12:18:28;9.00;;;6.47;;
1591;SDS011;789;51.612;7.510;2022-10-13T12:20:58;7.47;;;6.53;;
1591;SDS011;789;51.612;7.510;2022-10-13T12:23:28;14.00;;;6.37;;
1591;SDS011;789;51.612;7.510;2022-10-13T12:25:56;8.97;;;5.70;;
1591;SDS011;789;51.612;7.510;2022-10-13T12:28:24;13.13;;;6.50;;
1591;SDS011;789;51.612;7.510;2022-10-13T12:30:53;12.73;;;6.50;;
1591;SDS011;789;51.612;7.510;2022-10-13T12:33:25;10.53;;;6.70;;
1591;SDS011;789;51.612;7.510;2022-10-13T12:35:53;11.30;;;6.30;;
1591;SDS011;789;51.612;7.510;2022-10-13T12:38:20;9.70;;;6.30;;
1591;SDS011;789;51.612;7.510;2022-10-13T12:40:48;12.93;;;6.70;;
1591;SDS011;789;51.612;7.510;2022-10-13T12:43:18;10.10;;;6.57;;
1591;SDS011;789;51.612;7.510;2022-10-13T12:45:49;13.93;;;6.10;;
1591;SDS011;789;51.612;7.510;2022-10-13T12:48:31;8.13;;;6.27;;
1591;SDS011;789;51.612;7.510;2022-10-13T12:51:13;12.87;;;6.07;;
1591;SDS011;789;51.612;7.510;2022-10-13T12:53:42;14.47;;;6.50;;
1591;SDS011;789;51.612;7.510;2022-10-13T12:56:17;9.73;;;6.57;;
1591;SDS011;789;51.612;7.510;2022-10-13T12:58:50;11.77;;;7.07;;
1591;SDS011;789;51.612;7.510;2022-10-13T13:01:23;13.43;;;6.70;;
1591;SDS011;789;51.612;7.510;2022-10-13T13:03:54;13.50;;;6.40;;
1591;SDS011;789;51.612;7.510;2022-10-13T13:06:27;9.83;;;6.83;;
1591;SDS011;789;51.612;7.510;2022-10-13T13:09:07;9.23;;;6.37;;
1591;SDS011;789;51.612;7.510;2022-10-13T13:12:01;10.33;;;6.27;;
1591;SDS011;789;51.612;7.510;2022-10-13T13:14:33;10.30;;;6.80;;
1591;SDS011;789;51.612;7.510;2022-10-13T13:17:03;9.67;;;7.27;;
1591;SDS011;789;51.612;7.510;2022-10-13T13:19:33;14.90;;;7.50;;
1591;SDS011;789;51.612;7.510;2022-10-13T13:22:01;10.70;;;6.97;;
1591;SDS011;789;51.612;7.510;2022-10-13T13:24:28;14.80;;;7.00;;
1591;SDS011;789;51.612;7.510;2022-10-13T13:26:55;17.90;;;7.40;;
1591;SDS011;789;51.612;7.510;2022-10-13T13:29:22;11.80;;;7.37;;
1591;SDS011;789;51.612;7.510;2022-10-13T13:31:49;11.30;;;6.93;;
1591;SDS011;789;51.612;7.510;2022-10-13T13:34:16;13.13;;;6.40;;
1591;SDS011;789;51.612;7.510;2022-10-13T13:36:44;9.17;;;6.53;;
1591;SDS011;789;51.612;7.510;2022-10-13T13:39:12;10.40;;;8.20;;
1591;SDS011;789;51.612;7.510;2022-10-13T13:41:42;11.80;;;8.17;;
1591;SDS011;789;51.612;7.510;2022-10-13T13:44:09;11.17;;;8.10;;
1591;SDS011;789;51.612;7.510;2022-10-13T13:46:36;12.13;;;8.90;;
1591;SDS011;789;51.612;7.510;2022-10-13T13:49:03;18.93;;;9.07;;
1591;SDS011;789;51.612;7.510;2022-10-13T13:51:30;15.53;;;8.30;;
1591;SDS011;789;51.612;7.510;2022-10-13T13:53:58;10.23;;;8.47;;
1591;SDS011;789;51.612;7.510;2022-10-13T13:56:25;11.00;;;8.90;;
1591;SDS011;789;51.612;7.510;2022-10-13T13:58:51;14.47;;;10.23;;
1591;SDS011;789;51.612;7.510;2022-10-13T14:01:18;17.43;;;10.33;;
1591;SDS011;789;51.612;7.510;2022-10-13T14:03:45;11.67;;;9.53;;
1591;SDS011;789;51.612;7.510;2022-10-13T14:06:20;12.87;;;9.90;;
1591;SDS011;789;51.612;7.510;2022-10-13T14:08:48;16.63;;;10.30;;
1591;SDS011;789;51.612;7.510;2022-10-13T14:11:16;16.87;;;12.20;;
1591;SDS011;789;51.612;7.510;2022-10-13T14:13:43;14.70;;;10.17;;
1591;SDS011;789;51.612;7.510;2022-10-13T14:16:10;13.17;;;10.90;;
1591;SDS011;789;51.612;7.510;2022-10-13T14:18:41;14.27;;;11.20;;
1591;SDS011;789;51.612;7.510;2022-10-13T14:21:08;14.80;;;11.17;;
1591;SDS011;789;51.612;7.510;2022-10-13T14:23:35;16.13;;;12.50;;
1591;SDS011;789;51.612;7.510;2022-10-13T14:26:05;17.10;;;12.07;;
1591;SDS011;789;51.612;7.510;2022-10-13T14:28:34;15.93;;;11.80;;
1591;SDS011;789;51.612;7.510;2022-10-13T14:31:03;17.37;;;11.80;;
1591;SDS011;789;51.612;7.510;2022-10-13T14:33:31;13.97;;;11.40;;
1591;SDS011;789;51.612;7.510;2022-10-13T14:35:58;15.27;;;10.40;;
1591;SDS011;789;51.612;7.510;2022-10-13T14:38:25;13.77;;;11.00;;
1591;SDS011;789;51.612;7.510;2022-10-13T14:40:56;15.73;;;10.73;;
1591;SDS011;789;51.612;7.510;2022-10-13T14:43:23;14.83;;;11.67;;
1591;SDS011;789;51.612;7.510;2022-10-13T14:45:51;16.90;;;12.80;;
1591;SDS011;789;51.612;7.510;2022-10-13T14:48:18;18.03;;;12.30;;
1591;SDS011;789;51.612;7.510;2022-10-13T14:50:45;14.57;;;12.67;;
1591;SDS011;789;51.612;7.510;2022-10-13T14:53:12;21.10;;;13.10;;
1591;SDS011;789;51.612;7.510;2022-10-13T14:55:39;16.80;;;12.83;;
1591;SDS011;789;51.612;7.510;2022-10-13T14:58:06;18.03;;;11.37;;
1591;SDS011;789;51.612;7.510;2022-10-13T15:00:33;15.00;;;12.77;;
1591;SDS011;789;51.612;7.510;2022-10-13T15:03:01;15.37;;;11.47;;
1591;SDS011;789;51.612;7.510;2022-10-13T15:05:27;16.00;;;12.73;;
1591;SDS011;789;51.612;7.510;2022-10-13T15:07:54;17.63;;;12.47;;
1591;SDS011;789;51.612;7.510;2022-10-13T15:10:21;18.83;;;13.13;;
1591;SDS011;789;51.612;7.510;2022-10-13T15:12:48;15.90;;;13.40;;
1591;SDS011;789;51.612;7.510;2022-10-13T15:15:14;18.57;;;13.40;;
1591;SDS011;789;51.612;7.510;2022-10-13T15:17:41;17.70;;;13.60;;
1591;SDS011;789;51.612;7.510;2022-10-13T15:20:09;20.43;;;14.03;;
1591;SDS011;789;51.612;7.510;2022-10-13T15:22:36;16.53;;;12.83;;
1591;SDS011;789;51.612;7.510;2022-10-13T15:25:03;18.20;;;14.23;;
1591;SDS011;789;51.612;7.510;2022-10-13T15:27:33;16.63;;;14.33;;
1591;SDS011;789;51.612;7.510;2022-10-13T15:30:00;17.33;;;13.87;;
1591;SDS011;789;51.612;7.510;2022-10-13T15:32:27;19.30;;;14.77;;